INFORMACIÓN METAR y TAF
METAR FOR LFLS
ADDS - METARS form results

(0724 UTC 15 April 2021)
Data provider http://aviationweather.gov/metar/data/
 
METAR text: LFLS 150700Z AUTO VRB03KT CAVOK 02/M01 Q1022 NOSIG
Conditions at: LFLS (GRENOBLE/ST. GEO, FR) observed 0700 UTC 15 April 2021
Temperature: 2.0°C (36°F)
Dewpoint: -1.0°C (30°F) [RH = 80%]
Pressure (altimeter): 30.18 inches Hg (1022.0 mb)
Winds: variable direction winds at 3 MPH (3 knots; 1.5 m/s)
Visibility: 6 or more miles (10+ km)
Ceiling: ceiling and visibility are OK
Clouds: unknown
Weather: no significant weather observed at this time

METAR text: LFLS 150630Z AUTO VRB01KT CAVOK 00/M01 Q1022 NOSIG
Conditions at: LFLS (GRENOBLE/ST. GEO, FR) observed 0630 UTC 15 April 2021
Temperature: 0.0°C (32°F)
Dewpoint: -1.0°C (30°F) [RH = 93%]
Pressure (altimeter): 30.18 inches Hg (1022.0 mb)
Winds: variable direction winds at 1 MPH (1 knots; 0.5 m/s)
Visibility: 6 or more miles (10+ km)
Ceiling: ceiling and visibility are OK
Clouds: unknown
Weather: no significant weather observed at this time

Forecast for: LFLS (GRENOBLE/ST. GEO, FR)
Text: TAF LFLS 150200Z 1503/1603 35010KT CAVOK
Forecast period: 0300 UTC 15 April 2021 to 0300 UTC 16 April 2021
Forecast type: FROM: standard forecast or significant change
Winds: from the N (350 degrees) at 12 MPH (10 knots; 5.1 m/s)
Visibility: 6 or more miles (10+ km)
Ceiling: unknown
Clouds: missing
Weather: NSW  (no significant weather)
Text: TEMPO 1503/1506 VRB02KT
Forecast period: 0300 to 0600 UTC 15 April 2021
Forecast type: TEMPORARY: The following changes expected for less than half the time period
Winds: variable direction winds at 2 MPH (2 knots; 1.0 m/s)
Visibility: missing
Ceiling: unknown
Clouds: missing
Weather: no significant weather forecast for this period
Text: TEMPO 1514/1518 SCT060
Forecast period: 1400 to 1800 UTC 15 April 2021
Forecast type: TEMPORARY: The following changes expected for less than half the time period
Visibility: missing
Ceiling: at least 12,000 feet AGL
Clouds: scattered clouds at 6000 feet AGL
Weather: no significant weather forecast for this period

 MAPA DE AEROPUERTO

 INFORMACIÓN DE PISTA
Pista 09 Longitud 10007 ft Ancho 148 ft
Elevación 1224 ft Umbral desplazado 0 ft Rumbo de pista 90
Pista 27 Longitud 10007 ft Ancho 148 ft
Elevación 1302 ft Umbral desplazado 0 ft Rumbo de pista 270

 FRECUANCIAS DEL AEROPUERTO
Tipo APP Nombre GRENOBLE A Frecuencia 119.3 MHZ
Tipo ATIS Nombre GRENOBLE A Frecuencia 125.725 MHZ
Tipo GND Nombre GRENOBLE G Frecuencia 121.925 MHZ
Tipo TWR Nombre GRENOBLE T Frecuencia 119.3 MHZ

 RADIO AYUDAS DEL AEROPUERTO



Powered by Virtual Airlines Manager [v2.6.2]